Time;durP1;ratioP1;P1;durP2;ratioP2;P2;SDS_P1;SDS_P2;PMS_P1;PMS_P2;Temp;Humidity;BMP_temperature;BMP_pressure;BME280_temperature;BME280_humidity;BME280_pressure;Samples;Min_cycle;Max_cycle;Signal;HPM_P1;HPM_P2
2022/01/25 00:10:00;;;;;;;;;;;4.50;99.90;;;;;;4540594;30;20657;-84
2022/01/25 00:26:00;;;;;;;;;;;4.50;99.90;;;;;;4990048;28;19926;-86
2022/01/25 00:28:40;;;;;;;;;;;4.50;99.90;;;;;;4864069;29;19928;-82
2022/01/25 00:31:10;;;;;;;;;;;4.50;99.90;;;;;;4662040;30;19921;-82
2022/01/25 00:33:38;;;;;;;;;;;4.50;99.90;;;;;;4569981;30;19936;-84
2022/01/25 00:41:11;;;;;;;;;;;4.50;99.90;;;;;;5171182;27;19926;-87
2022/01/25 00:43:38;;;;;;;;;;;4.50;99.90;;;;;;5118516;27;19934;-84
2022/01/25 00:46:10;;;;;;;;;;;4.50;99.90;;;;;;5121955;28;19926;-84
2022/01/25 00:48:44;;;;;;;;;;;4.50;99.90;;;;;;5067471;28;19926;-81
2022/01/25 00:51:21;;;;;;;;;;;4.50;99.90;;;;;;4920792;28;19929;-82
2022/01/25 00:53:57;;;;;;;;;;;4.50;99.90;;;;;;4762828;29;19930;-82
2022/01/25 00:56:26;;;;;;;;;;;4.50;99.90;;;;;;4498031;30;19937;-81
2022/01/25 01:01:28;;;;;;;;;;;4.50;99.90;;;;;;5176437;27;19926;-85
2022/01/25 01:03:54;;;;;;;;;;;4.50;99.90;;;;;;5098261;28;19924;-83
2022/01/25 01:06:22;;;;;;;;;;;4.50;99.90;;;;;;5078917;28;19928;-86
2022/01/25 01:08:51;;;;;;;;;;;4.50;99.90;;;;;;5030272;28;19933;-85
2022/01/25 01:11:24;;;;;;;;;;;4.50;99.90;;;;;;4944550;28;19950;-85
2022/01/25 01:13:58;;;;;;;;;;;4.50;99.90;;;;;;4775174;29;19940;-82
2022/01/25 01:16:58;;;;;;;;;;;4.50;99.90;;;;;;4526933;30;19949;-86
2022/01/25 01:30:09;;;;;;;;;;;4.50;99.90;;;;;;5029745;28;19934;-84
2022/01/25 01:33:08;;;;;;;;;;;4.50;99.90;;;;;;4945430;28;19927;-82
2022/01/25 01:35:50;;;;;;;;;;;4.60;99.90;;;;;;4812992;29;19931;-82
2022/01/25 01:38:41;;;;;;;;;;;4.50;99.90;;;;;;4479350;31;20027;-82
2022/01/25 01:46:30;;;;;;;;;;;4.50;99.90;;;;;;5177240;27;19925;-82
2022/01/25 01:48:59;;;;;;;;;;;4.40;99.90;;;;;;5090494;27;19946;-83
2022/01/25 01:51:29;;;;;;;;;;;4.40;99.90;;;;;;5099302;28;19932;-84
2022/01/25 01:53:57;;;;;;;;;;;4.40;99.90;;;;;;5026436;28;19926;-83
2022/01/25 01:56:24;;;;;;;;;;;4.50;99.90;;;;;;4957471;28;19945;-83
2022/01/25 01:58:51;;;;;;;;;;;4.40;99.90;;;;;;4781270;29;19953;-82
2022/01/25 02:01:19;;;;;;;;;;;4.40;99.90;;;;;;4555124;30;19942;-84
2022/01/25 02:08:11;;;;;;;;;;;4.40;99.90;;;;;;5176501;27;19926;-84
2022/01/25 02:10:39;;;;;;;;;;;4.40;99.90;;;;;;5138588;27;19908;-80
2022/01/25 02:13:06;;;;;;;;;;;4.40;99.90;;;;;;5112671;27;19942;-80
2022/01/25 02:15:32;;;;;;;;;;;4.40;99.90;;;;;;5099653;28;19931;-82
2022/01/25 02:23:27;;;;;;;;;;;4.40;99.90;;;;;;4513045;30;19938;-86
2022/01/25 02:30:25;;;;;;;;;;;4.30;99.90;;;;;;5179602;27;20004;-83
2022/01/25 02:32:51;;;;;;;;;;;4.30;99.90;;;;;;5123169;27;19924;-81
2022/01/25 02:35:18;;;;;;;;;;;4.30;99.90;;;;;;5105032;28;19939;-81
2022/01/25 02:37:45;;;;;;;;;;;4.30;99.90;;;;;;5081216;28;19928;-83
2022/01/25 02:40:11;;;;;;;;;;;4.30;99.90;;;;;;5078268;28;19936;-85
2022/01/25 02:42:38;;;;;;;;;;;4.20;99.90;;;;;;4991942;28;19928;-82
2022/01/25 02:45:10;;;;;;;;;;;4.20;99.90;;;;;;4761464;29;19931;-83
2022/01/25 02:50:12;;;;;;;;;;;4.20;99.90;;;;;;5179471;27;19925;-83
2022/01/25 02:52:39;;;;;;;;;;;4.20;99.90;;;;;;5142342;27;19924;-82
2022/01/25 02:55:06;;;;;;;;;;;4.10;99.90;;;;;;5115082;28;19946;-80
2022/01/25 02:57:32;;;;;;;;;;;4.10;99.90;;;;;;5124741;28;19925;-80
2022/01/25 03:00:01;;;;;;;;;;;4.00;99.90;;;;;;5031071;28;19927;-81
2022/01/25 03:02:27;;;;;;;;;;;4.00;99.90;;;;;;4854902;29;19938;-79
2022/01/25 03:04:54;;;;;;;;;;;4.00;99.90;;;;;;4674096;30;19932;-85
2022/01/25 03:12:50;;;;;;;;;;;3.90;99.90;;;;;;5154391;27;19926;-85
2022/01/25 03:15:30;;;;;;;;;;;3.90;99.90;;;;;;5115481;28;19931;-84
2022/01/25 03:18:00;;;;;;;;;;;3.90;99.90;;;;;;5077104;28;19924;-85
2022/01/25 03:20:37;;;;;;;;;;;3.90;99.90;;;;;;5012082;28;19933;-86
2022/01/25 03:23:06;;;;;;;;;;;3.90;99.90;;;;;;4927878;28;19927;-85
2022/01/25 03:25:33;;;;;;;;;;;3.90;99.90;;;;;;4768433;29;19939;-82
2022/01/25 03:28:00;;;;;;;;;;;3.90;99.90;;;;;;4618378;30;19941;-85
2022/01/25 03:35:33;;;;;;;;;;;3.90;99.90;;;;;;5186276;27;19925;-80
2022/01/25 03:37:59;;;;;;;;;;;3.80;99.90;;;;;;5142355;27;19923;-80
2022/01/25 03:40:26;;;;;;;;;;;3.80;99.90;;;;;;5138589;27;19928;-84
2022/01/25 03:42:54;;;;;;;;;;;3.80;99.90;;;;;;5081174;28;19924;-85
2022/01/25 03:45:31;;;;;;;;;;;3.80;99.90;;;;;;5044354;28;19931;-82
2022/01/25 03:49:47;;;;;;;;;;;3.70;99.90;;;;;;4879496;29;19934;-85
2022/01/25 03:50:47;;;;;;;;;;;3.80;99.90;;;;;;4693837;29;19941;-84
2022/01/25 03:58:20;;;;;;;;;;;3.70;99.90;;;;;;5174338;27;19941;-83
2022/01/25 04:00:48;;;;;;;;;;;3.80;99.90;;;;;;5137921;27;19930;-84
2022/01/25 04:03:18;;;;;;;;;;;3.80;99.90;;;;;;5119002;27;19923;-84
2022/01/25 04:05:50;;;;;;;;;;;3.80;99.90;;;;;;5108602;28;19931;-85
2022/01/25 04:08:18;;;;;;;;;;;3.80;99.90;;;;;;4998691;28;19928;-81
2022/01/25 04:10:44;;;;;;;;;;;3.80;99.90;;;;;;4861875;29;19929;-81
2022/01/25 04:13:11;;;;;;;;;;;3.90;99.90;;;;;;4744886;29;19932;-86
2022/01/25 04:15:40;;;;;;;;;;;3.80;99.90;;;;;;4490617;30;19937;-83
2022/01/25 04:25:33;;;;;;;;;;;3.80;99.90;;;;;;5100410;28;19924;-83
2022/01/25 04:28:00;;;;;;;;;;;3.80;99.90;;;;;;5100712;27;19924;-84
2022/01/25 04:30:26;;;;;;;;;;;3.80;99.90;;;;;;5046658;28;19933;-83
2022/01/25 04:32:59;;;;;;;;;;;3.80;99.90;;;;;;4953104;28;19950;-82
2022/01/25 04:35:43;;;;;;;;;;;3.80;99.90;;;;;;4851695;29;19930;-85
2022/01/25 04:49:12;;;;;;;;;;;3.90;99.90;;;;;;5117282;27;19949;-86
2022/01/25 04:51:54;;;;;;;;;;;3.90;99.90;;;;;;5111533;28;19923;-83
2022/01/25 04:54:40;;;;;;;;;;;3.90;99.90;;;;;;5026810;28;19925;-83
2022/01/25 04:57:22;;;;;;;;;;;3.90;99.90;;;;;;4892899;28;19929;-84
2022/01/25 04:59:55;;;;;;;;;;;3.90;99.90;;;;;;4610154;30;20020;-81
2022/01/25 05:06:20;;;;;;;;;;;3.90;99.90;;;;;;5189587;27;19925;-82
2022/01/25 05:08:50;;;;;;;;;;;3.90;99.90;;;;;;5133279;27;19939;-86
2022/01/25 05:11:24;;;;;;;;;;;3.90;99.90;;;;;;5104920;28;19932;-83
2022/01/25 05:13:55;;;;;;;;;;;4.00;99.90;;;;;;5072008;28;19939;-86
2022/01/25 05:16:31;;;;;;;;;;;3.90;99.90;;;;;;4954515;28;19934;-83
2022/01/25 05:19:08;;;;;;;;;;;3.90;99.90;;;;;;4799850;29;19968;-83
2022/01/25 05:29:04;;;;;;;;;;;3.90;99.90;;;;;;5159206;27;19934;-86
2022/01/25 05:31:31;;;;;;;;;;;3.90;99.90;;;;;;5085966;28;19932;-90
2022/01/25 05:34:01;;;;;;;;;;;3.90;99.90;;;;;;5102275;27;19924;-85
2022/01/25 05:36:28;;;;;;;;;;;3.90;99.90;;;;;;5070531;28;19933;-85
2022/01/25 05:38:57;;;;;;;;;;;4.00;99.90;;;;;;5011623;28;19938;-83
2022/01/25 05:41:27;;;;;;;;;;;4.00;99.90;;;;;;4788607;29;19935;-83
2022/01/25 05:44:22;;;;;;;;;;;3.90;99.90;;;;;;4520893;30;19940;-87
2022/01/25 05:51:53;;;;;;;;;;;3.90;99.90;;;;;;5182016;27;19925;-82
2022/01/25 05:54:20;;;;;;;;;;;3.90;99.90;;;;;;5134169;27;19923;-88
2022/01/25 05:56:46;;;;;;;;;;;3.90;99.90;;;;;;5115433;27;19931;-89
2022/01/25 05:59:13;;;;;;;;;;;3.90;99.90;;;;;;5093616;28;19928;-85
2022/01/25 06:01:40;;;;;;;;;;;3.90;99.90;;;;;;4997146;28;19925;-89
2022/01/25 06:04:07;;;;;;;;;;;3.80;99.90;;;;;;4757791;29;19932;-84
2022/01/25 06:06:34;;;;;;;;;;;3.80;99.90;;;;;;4552627;30;19937;-83
2022/01/25 06:14:05;;;;;;;;;;;3.90;99.90;;;;;;5173641;27;19925;-84
2022/01/25 06:16:32;;;;;;;;;;;3.90;99.90;;;;;;5137092;27;19923;-83
2022/01/25 06:18:59;;;;;;;;;;;3.90;99.90;;;;;;5136366;27;19938;-83
2022/01/25 06:21:26;;;;;;;;;;;3.80;99.90;;;;;;5119235;28;19998;-85
2022/01/25 06:23:53;;;;;;;;;;;3.90;99.90;;;;;;5065908;28;19925;-81
2022/01/25 06:26:19;;;;;;;;;;;3.90;99.90;;;;;;4901153;28;19937;-80
2022/01/25 06:28:46;;;;;;;;;;;3.90;99.90;;;;;;4662285;29;19951;-81
2022/01/25 06:36:13;;;;;;;;;;;3.80;99.90;;;;;;5170803;27;19926;-82
2022/01/25 06:38:40;;;;;;;;;;;3.90;99.90;;;;;;5119255;27;19938;-82
2022/01/25 06:41:09;;;;;;;;;;;3.90;99.90;;;;;;5112500;28;19939;-86
2022/01/25 06:43:36;;;;;;;;;;;3.90;99.90;;;;;;5043418;28;19936;-82
2022/01/25 06:46:03;;;;;;;;;;;3.90;99.90;;;;;;4969029;28;19932;-85
2022/01/25 06:48:31;;;;;;;;;;;3.90;99.90;;;;;;4815687;29;19930;-84
2022/01/25 06:50:57;;;;;;;;;;;3.90;99.90;;;;;;4582296;30;19937;-83
2022/01/25 06:58:31;;;;;;;;;;;3.90;99.90;;;;;;5153381;27;19927;-84
2022/01/25 07:00:58;;;;;;;;;;;4.00;99.90;;;;;;5108899;28;19924;-83
2022/01/25 07:03:24;;;;;;;;;;;4.00;99.90;;;;;;5078262;28;19956;-81
2022/01/25 07:05:51;;;;;;;;;;;3.90;99.90;;;;;;5074908;28;19931;-82
2022/01/25 07:08:18;;;;;;;;;;;3.90;99.90;;;;;;4980847;28;19935;-83
2022/01/25 07:10:44;;;;;;;;;;;3.90;99.90;;;;;;4843213;29;19937;-84
2022/01/25 07:13:11;;;;;;;;;;;3.90;99.90;;;;;;4636464;30;19935;-83
2022/01/25 07:20:43;;;;;;;;;;;3.90;99.90;;;;;;5175187;27;19926;-83
2022/01/25 07:23:10;;;;;;;;;;;4.00;99.90;;;;;;5119571;27;19923;-82
2022/01/25 07:25:37;;;;;;;;;;;4.00;99.90;;;;;;5117439;27;19932;-83
2022/01/25 07:28:04;;;;;;;;;;;4.00;99.90;;;;;;5091474;28;19925;-83
2022/01/25 07:30:30;;;;;;;;;;;4.00;99.90;;;;;;5004614;28;19935;-83
2022/01/25 07:32:57;;;;;;;;;;;3.90;99.90;;;;;;4779874;29;19938;-85
2022/01/25 07:35:23;;;;;;;;;;;4.00;99.90;;;;;;4583911;30;19936;-85
2022/01/25 07:41:58;;;;;;;;;;;4.00;99.90;;;;;;5166955;27;19925;-82
2022/01/25 07:44:36;;;;;;;;;;;4.00;99.90;;;;;;5122259;27;19924;-82
2022/01/25 07:47:03;;;;;;;;;;;4.00;99.90;;;;;;5114061;28;19924;-85
2022/01/25 07:49:30;;;;;;;;;;;4.00;99.90;;;;;;5114280;28;19943;-82
2022/01/25 07:51:57;;;;;;;;;;;4.10;99.90;;;;;;4960066;28;19930;-82
2022/01/25 07:54:24;;;;;;;;;;;4.00;99.90;;;;;;4844269;29;19931;-84
2022/01/25 07:56:51;;;;;;;;;;;4.00;99.90;;;;;;4577215;30;19942;-81
2022/01/25 08:04:22;;;;;;;;;;;4.00;99.90;;;;;;5175792;27;19926;-84
2022/01/25 08:06:49;;;;;;;;;;;3.90;99.90;;;;;;5138169;27;19930;-85
2022/01/25 08:09:15;;;;;;;;;;;4.00;99.90;;;;;;5118445;27;19931;-85
2022/01/25 08:11:43;;;;;;;;;;;4.00;99.90;;;;;;5071722;28;19925;-84
2022/01/25 08:14:12;;;;;;;;;;;4.00;99.90;;;;;;4977264;28;19934;-81
2022/01/25 08:16:39;;;;;;;;;;;4.00;99.90;;;;;;4756774;29;19934;-84
2022/01/25 08:19:06;;;;;;;;;;;3.90;99.90;;;;;;4499656;31;19943;-87
2022/01/25 08:26:39;;;;;;;;;;;3.90;99.90;;;;;;5154657;27;19927;-84
2022/01/25 08:29:06;;;;;;;;;;;3.90;99.90;;;;;;5116831;27;19923;-85
2022/01/25 08:31:33;;;;;;;;;;;4.00;99.90;;;;;;5107499;28;19946;-84
2022/01/25 08:34:00;;;;;;;;;;;4.20;99.90;;;;;;5081313;28;19924;-81
2022/01/25 08:36:27;;;;;;;;;;;4.60;99.90;;;;;;5026763;28;19927;-82
2022/01/25 08:38:54;;;;;;;;;;;5.40;99.90;;;;;;4794063;29;19939;-86
2022/01/25 08:41:21;;;;;;;;;;;5.20;99.90;;;;;;4534771;30;19944;-86
2022/01/25 08:46:36;;;;;;;;;;;4.60;99.90;;;;;;5175026;27;19926;-84
2022/01/25 08:49:03;;;;;;;;;;;4.50;99.90;;;;;;5138645;27;19923;-83
2022/01/25 08:51:29;;;;;;;;;;;4.40;99.90;;;;;;5121752;27;19931;-84
2022/01/25 08:53:56;;;;;;;;;;;4.30;99.90;;;;;;5074447;27;19924;-82
2022/01/25 08:56:23;;;;;;;;;;;4.40;99.90;;;;;;5054486;28;19926;-85
2022/01/25 08:58:49;;;;;;;;;;;4.30;99.90;;;;;;4809724;29;19938;-86
2022/01/25 09:01:16;;;;;;;;;;;4.30;99.90;;;;;;4660180;30;19940;-84
2022/01/25 09:06:22;;;;;;;;;;;4.20;99.90;;;;;;5187019;27;19925;-83
2022/01/25 09:08:49;;;;;;;;;;;4.20;99.90;;;;;;5148441;27;19923;-83
2022/01/25 09:11:16;;;;;;;;;;;4.30;99.90;;;;;;5125122;28;19943;-82
2022/01/25 09:13:43;;;;;;;;;;;4.40;99.90;;;;;;5103676;28;19924;-81
2022/01/25 09:16:09;;;;;;;;;;;4.40;99.90;;;;;;5048144;28;19926;-81
2022/01/25 09:18:36;;;;;;;;;;;4.30;99.90;;;;;;4941725;28;19943;-84
2022/01/25 09:21:03;;;;;;;;;;;4.40;99.90;;;;;;4738009;29;19933;-82
2022/01/25 09:26:50;;;;;;;;;;;4.30;99.90;;;;;;5193061;27;19986;-82
2022/01/25 09:29:17;;;;;;;;;;;4.30;99.90;;;;;;5153127;27;19929;-82
2022/01/25 09:31:43;;;;;;;;;;;4.20;99.90;;;;;;5124290;27;19931;-84
2022/01/25 09:34:12;;;;;;;;;;;4.30;99.90;;;;;;5075037;28;19931;-83
2022/01/25 09:36:39;;;;;;;;;;;4.30;99.90;;;;;;4970192;28;19928;-82
2022/01/25 09:39:05;;;;;;;;;;;4.30;99.90;;;;;;4768873;29;19931;-86
2022/01/25 09:41:32;;;;;;;;;;;4.30;99.90;;;;;;4525528;30;19944;-86
2022/01/25 09:46:39;;;;;;;;;;;4.40;99.90;;;;;;5174685;27;19926;-84
2022/01/25 09:49:06;;;;;;;;;;;4.30;99.90;;;;;;5116102;27;19923;-82
2022/01/25 09:51:33;;;;;;;;;;;4.40;99.90;;;;;;5108978;28;19924;-86
2022/01/25 09:54:00;;;;;;;;;;;4.40;99.90;;;;;;5061274;28;19931;-83
2022/01/25 09:56:27;;;;;;;;;;;4.40;99.90;;;;;;4954697;28;19933;-84
2022/01/25 09:58:54;;;;;;;;;;;4.50;99.90;;;;;;4719586;29;19933;-85
2022/01/25 10:01:24;;;;;;;;;;;4.50;99.90;;;;;;4454885;30;19939;-83
2022/01/25 10:08:58;;;;;;;;;;;4.40;99.90;;;;;;5182692;27;19925;-84
2022/01/25 10:11:25;;;;;;;;;;;4.50;99.90;;;;;;5131915;28;19933;-83
2022/01/25 10:13:55;;;;;;;;;;;4.60;99.90;;;;;;5074823;28;19932;-86
2022/01/25 10:16:29;;;;;;;;;;;4.60;99.90;;;;;;5026142;28;19925;-83
2022/01/25 10:18:57;;;;;;;;;;;4.70;99.90;;;;;;4958587;28;19927;-84
2022/01/25 10:21:24;;;;;;;;;;;4.70;99.90;;;;;;4818051;29;19931;-86
2022/01/25 10:24:04;;;;;;;;;;;4.60;99.90;;;;;;4587185;30;19944;-84
2022/01/25 10:31:31;;;;;;;;;;;4.70;99.90;;;;;;5169147;27;19926;-83
2022/01/25 10:33:58;;;;;;;;;;;4.60;99.90;;;;;;5100000;27;19931;-85
2022/01/25 10:36:25;;;;;;;;;;;4.60;99.90;;;;;;5118470;27;19924;-82
2022/01/25 10:38:53;;;;;;;;;;;4.70;99.90;;;;;;5102534;28;19925;-81
2022/01/25 10:41:21;;;;;;;;;;;4.60;99.90;;;;;;5017753;28;19933;-82
2022/01/25 10:43:48;;;;;;;;;;;4.50;99.90;;;;;;4780395;29;19946;-84
2022/01/25 10:46:17;;;;;;;;;;;4.50;99.90;;;;;;4558873;30;19935;-84
2022/01/25 10:53:59;;;;;;;;;;;4.50;99.90;;;;;;5174642;27;19926;-84
2022/01/25 10:56:26;;;;;;;;;;;4.50;99.90;;;;;;5126412;27;19923;-83
2022/01/25 10:59:00;;;;;;;;;;;4.50;99.90;;;;;;5157100;27;19923;-84
2022/01/25 11:01:30;;;;;;;;;;;4.50;99.90;;;;;;5119061;27;19924;-84
2022/01/25 11:04:03;;;;;;;;;;;4.50;99.90;;;;;;5018115;28;19934;-84
2022/01/25 11:06:30;;;;;;;;;;;4.60;99.90;;;;;;4740827;29;19956;-86
2022/01/25 11:11:51;;;;;;;;;;;4.80;99.90;;;;;;5176839;27;19930;-81
2022/01/25 11:17:03;;;;;;;;;;;4.80;99.90;;;;;;5055367;28;19924;-85
2022/01/25 11:19:30;;;;;;;;;;;4.90;99.90;;;;;;5036094;28;19933;-83
2022/01/25 11:21:58;;;;;;;;;;;4.90;99.90;;;;;;4963390;28;19927;-83
2022/01/25 11:24:26;;;;;;;;;;;4.90;99.90;;;;;;4806498;29;19949;-83
2022/01/25 11:26:54;;;;;;;;;;;5.00;99.90;;;;;;4520685;30;19943;-82
2022/01/25 11:34:15;;;;;;;;;;;5.00;99.90;;;;;;5191863;27;19930;-83
2022/01/25 11:36:43;;;;;;;;;;;5.10;99.90;;;;;;5155939;27;19923;-83
2022/01/25 11:39:10;;;;;;;;;;;5.20;99.90;;;;;;5133063;27;19937;-81
2022/01/25 11:41:40;;;;;;;;;;;5.20;99.90;;;;;;5112735;28;19928;-82
2022/01/25 11:44:08;;;;;;;;;;;5.10;99.90;;;;;;5001566;28;19934;-87
2022/01/25 11:46:34;;;;;;;;;;;5.00;99.90;;;;;;4838132;29;19941;-85
2022/01/25 11:49:04;;;;;;;;;;;5.10;99.90;;;;;;4637507;30;19953;-84
2022/01/25 11:54:28;;;;;;;;;;;5.10;99.90;;;;;;5175512;27;19925;-84
2022/01/25 11:57:07;;;;;;;;;;;5.00;99.90;;;;;;5132393;27;19924;-85
2022/01/25 11:59:34;;;;;;;;;;;5.10;99.90;;;;;;5075136;28;19924;-83
2022/01/25 12:02:01;;;;;;;;;;;5.10;99.90;;;;;;5058910;28;19936;-82
2022/01/25 12:04:29;;;;;;;;;;;5.00;99.90;;;;;;4938263;28;19929;-81
2022/01/25 12:07:01;;;;;;;;;;;5.00;99.90;;;;;;4749358;29;19933;-85
2022/01/25 12:09:43;;;;;;;;;;;5.00;99.90;;;;;;4430541;31;19939;-83
2022/01/25 12:17:19;;;;;;;;;;;5.10;99.90;;;;;;5175624;27;19930;-85
2022/01/25 12:19:48;;;;;;;;;;;5.00;99.90;;;;;;5119845;27;19923;-84
2022/01/25 12:22:26;;;;;;;;;;;5.00;99.90;;;;;;5109014;28;19923;-82
2022/01/25 12:25:04;;;;;;;;;;;5.00;99.90;;;;;;5067041;28;19932;-82
2022/01/25 12:27:35;;;;;;;;;;;5.00;99.90;;;;;;4938890;28;19928;-84
2022/01/25 12:30:06;;;;;;;;;;;5.00;99.90;;;;;;4727540;29;19932;-83
2022/01/25 12:32:36;;;;;;;;;;;5.10;99.90;;;;;;4337117;31;19963;-84
2022/01/25 12:40:28;;;;;;;;;;;5.10;99.90;;;;;;5176495;27;19930;-89
2022/01/25 12:42:56;;;;;;;;;;;5.10;99.90;;;;;;5099466;28;19924;-88
2022/01/25 12:45:25;;;;;;;;;;;5.10;99.90;;;;;;5098419;28;19932;-89
2022/01/25 12:47:52;;;;;;;;;;;5.10;99.90;;;;;;5009324;28;19927;-89
2022/01/25 12:50:19;;;;;;;;;;;5.00;99.90;;;;;;4825957;29;20015;-89
2022/01/25 12:52:46;;;;;;;;;;;5.10;99.90;;;;;;4728861;30;19932;-86
2022/01/25 12:55:13;;;;;;;;;;;5.10;99.90;;;;;;4435137;30;19939;-89
2022/01/25 13:01:56;;;;;;;;;;;5.10;99.90;;;;;;5162963;27;19927;-86
2022/01/25 13:04:22;;;;;;;;;;;5.20;99.90;;;;;;5089457;28;19925;-87
2022/01/25 13:06:52;;;;;;;;;;;5.10;99.90;;;;;;5086206;28;19931;-84
2022/01/25 13:09:26;;;;;;;;;;;5.20;99.90;;;;;;5070777;28;19929;-86
2022/01/25 13:12:10;;;;;;;;;;;5.10;99.90;;;;;;4914554;29;19948;-82
2022/01/25 13:14:49;;;;;;;;;;;5.00;99.90;;;;;;4736969;29;19933;-82
2022/01/25 13:17:17;;;;;;;;;;;5.10;99.90;;;;;;4519588;31;19935;-83
2022/01/25 13:22:30;;;;;;;;;;;5.00;99.90;;;;;;5140676;27;19927;-84
2022/01/25 13:25:00;;;;;;;;;;;5.00;99.90;;;;;;5066100;28;19924;-84
2022/01/25 13:27:29;;;;;;;;;;;5.00;99.90;;;;;;5051075;28;19931;-82
2022/01/25 13:32:42;;;;;;;;;;;5.00;99.90;;;;;;4962990;28;19934;-82
2022/01/25 13:35:17;;;;;;;;;;;5.10;99.90;;;;;;4770704;29;19932;-85
2022/01/25 13:37:46;;;;;;;;;;;5.10;99.90;;;;;;4425361;31;19937;-83
2022/01/25 13:48:03;;;;;;;;;;;5.10;99.90;;;;;;5146828;27;19918;-81
2022/01/25 13:50:30;;;;;;;;;;;5.10;99.90;;;;;;5132904;28;19912;-81
2022/01/25 13:52:57;;;;;;;;;;;5.10;99.90;;;;;;5068675;28;19913;-82
2022/01/25 13:55:23;;;;;;;;;;;5.10;99.90;;;;;;4998193;28;19911;-82
2022/01/25 13:57:59;;;;;;;;;;;5.10;99.90;;;;;;4890030;29;19937;-83
2022/01/25 14:00:26;;;;;;;;;;;5.10;99.90;;;;;;4633259;29;19936;-86
2022/01/25 14:05:41;;;;;;;;;;;5.10;99.90;;;;;;5175290;27;19926;-82
2022/01/25 14:08:08;;;;;;;;;;;5.10;99.90;;;;;;5139717;27;19922;-86
2022/01/25 14:10:34;;;;;;;;;;;5.00;99.90;;;;;;5137080;27;19938;-84
2022/01/25 14:21:55;;;;;;;;;;;5.10;99.90;;;;;;4420353;31;19947;-85
2022/01/25 14:28:41;;;;;;;;;;;5.00;99.90;;;;;;5175467;27;19925;-82
2022/01/25 14:31:13;;;;;;;;;;;5.00;99.90;;;;;;5114492;27;19935;-85
2022/01/25 14:33:48;;;;;;;;;;;5.00;99.90;;;;;;5087537;28;19924;-84
2022/01/25 14:36:15;;;;;;;;;;;5.00;99.90;;;;;;5020069;28;19933;-85
2022/01/25 14:38:43;;;;;;;;;;;5.00;99.90;;;;;;4935997;28;19928;-86
2022/01/25 14:41:11;;;;;;;;;;;5.00;99.90;;;;;;4798397;29;19941;-86
2022/01/25 14:43:39;;;;;;;;;;;4.90;99.90;;;;;;4502803;30;19938;-87
2022/01/25 14:48:54;;;;;;;;;;;5.00;99.90;;;;;;5197562;27;19925;-83
2022/01/25 14:51:21;;;;;;;;;;;5.00;99.90;;;;;;5167677;27;19929;-83
2022/01/25 14:53:53;;;;;;;;;;;4.90;99.90;;;;;;5143710;28;19930;-81
2022/01/25 14:56:19;;;;;;;;;;;5.00;99.90;;;;;;5094986;27;19924;-85
2022/01/25 15:01:32;;;;;;;;;;;5.00;99.90;;;;;;4889830;28;19929;-84
2022/01/25 15:03:59;;;;;;;;;;;5.00;99.90;;;;;;4730090;29;19931;-84
2022/01/25 15:09:14;;;;;;;;;;;5.00;99.90;;;;;;5176132;27;19925;-82
2022/01/25 15:11:41;;;;;;;;;;;4.90;99.90;;;;;;5100705;28;19951;-81
2022/01/25 15:14:15;;;;;;;;;;;5.00;99.90;;;;;;5087228;28;19924;-82
2022/01/25 15:16:42;;;;;;;;;;;4.90;99.90;;;;;;5067724;28;19931;-82
2022/01/25 15:19:09;;;;;;;;;;;4.90;99.90;;;;;;5047795;28;19933;-81
2022/01/25 15:21:36;;;;;;;;;;;4.90;99.90;;;;;;4825794;28;19947;-83
2022/01/25 15:24:03;;;;;;;;;;;4.90;99.90;;;;;;4449098;30;19938;-85
2022/01/25 15:30:59;;;;;;;;;;;4.90;99.90;;;;;;5173681;27;20020;-85
2022/01/25 15:33:26;;;;;;;;;;;5.00;99.90;;;;;;5136084;27;19923;-87
2022/01/25 15:35:53;;;;;;;;;;;5.00;99.90;;;;;;5119179;27;19938;-85
2022/01/25 15:38:20;;;;;;;;;;;4.90;99.90;;;;;;5131312;28;19932;-83
2022/01/25 15:40:47;;;;;;;;;;;5.00;99.90;;;;;;5003335;28;19927;-85
2022/01/25 15:43:13;;;;;;;;;;;5.00;99.90;;;;;;4862784;29;19929;-84
2022/01/25 15:45:56;;;;;;;;;;;4.90;99.90;;;;;;4575546;30;19937;-82
2022/01/25 15:53:33;;;;;;;;;;;4.90;99.90;;;;;;5175044;27;19926;-84
2022/01/25 15:56:00;;;;;;;;;;;4.80;99.90;;;;;;5124930;27;19924;-85
2022/01/25 15:58:27;;;;;;;;;;;4.90;99.90;;;;;;5090017;28;19932;-84
2022/01/25 16:00:54;;;;;;;;;;;4.80;99.90;;;;;;5063117;28;19929;-88
2022/01/25 16:03:26;;;;;;;;;;;4.90;99.90;;;;;;5004501;28;19921;-86
2022/01/25 16:05:53;;;;;;;;;;;4.80;99.90;;;;;;4817185;28;19932;-82
2022/01/25 16:08:20;;;;;;;;;;;4.80;99.90;;;;;;4554226;30;19941;-82
2022/01/25 16:15:31;;;;;;;;;;;4.80;99.90;;;;;;5193984;27;19913;-83
2022/01/25 16:17:59;;;;;;;;;;;4.80;99.90;;;;;;5150126;27;19923;-80
2022/01/25 16:20:27;;;;;;;;;;;4.80;99.90;;;;;;5124902;28;19923;-85
2022/01/25 16:22:54;;;;;;;;;;;4.70;99.90;;;;;;5052455;28;20848;-82
2022/01/25 16:25:30;;;;;;;;;;;4.80;99.90;;;;;;4928829;28;19935;-84
2022/01/25 16:27:57;;;;;;;;;;;4.80;99.90;;;;;;4797578;29;19942;-87
2022/01/25 16:30:24;;;;;;;;;;;4.80;99.90;;;;;;4488289;30;19949;-88
2022/01/25 16:38:01;;;;;;;;;;;4.70;99.90;;;;;;5156424;27;19930;-82
2022/01/25 16:40:34;;;;;;;;;;;4.70;99.90;;;;;;5140207;27;19934;-90
2022/01/25 16:43:04;;;;;;;;;;;4.70;99.90;;;;;;5108349;28;19924;-91
2022/01/25 16:45:34;;;;;;;;;;;4.80;99.90;;;;;;5051247;28;19925;-91
2022/01/25 16:48:01;;;;;;;;;;;4.80;99.90;;;;;;4974438;28;19927;-91
2022/01/25 16:50:28;;;;;;;;;;;4.80;99.90;;;;;;4794537;29;19931;-90
2022/01/25 16:52:54;;;;;;;;;;;4.80;99.90;;;;;;4541869;30;19944;-88
2022/01/25 16:58:01;;;;;;;;;;;4.80;99.90;;;;;;5173334;27;19925;-84
2022/01/25 17:00:31;;;;;;;;;;;4.80;99.90;;;;;;5137736;27;19930;-91
2022/01/25 17:02:58;;;;;;;;;;;4.90;99.90;;;;;;5118315;27;19930;-86
2022/01/25 17:05:25;;;;;;;;;;;4.80;99.90;;;;;;5115708;28;19962;-84
2022/01/25 17:07:54;;;;;;;;;;;4.90;99.90;;;;;;5016621;28;19937;-85
2022/01/25 17:10:20;;;;;;;;;;;4.90;99.90;;;;;;4906343;28;19941;-83
2022/01/25 17:12:47;;;;;;;;;;;4.90;99.90;;;;;;4651863;29;19941;-81
2022/01/25 17:20:19;;;;;;;;;;;4.90;99.90;;;;;;5184312;27;19929;-83
2022/01/25 17:22:46;;;;;;;;;;;4.90;99.90;;;;;;5128715;27;19923;-82
2022/01/25 17:25:13;;;;;;;;;;;4.90;99.90;;;;;;5125079;27;19931;-84
2022/01/25 17:27:40;;;;;;;;;;;4.80;99.90;;;;;;5104060;28;19924;-84
2022/01/25 17:30:08;;;;;;;;;;;4.90;99.90;;;;;;4968181;28;19928;-86
2022/01/25 17:32:35;;;;;;;;;;;4.80;99.90;;;;;;4709338;29;19934;-82
2022/01/25 17:35:02;;;;;;;;;;;4.80;99.90;;;;;;4476543;31;19938;-82
2022/01/25 17:42:35;;;;;;;;;;;4.80;99.90;;;;;;5171067;27;19926;-81
2022/01/25 17:45:03;;;;;;;;;;;4.80;99.90;;;;;;5130388;27;19923;-84
2022/01/25 17:47:32;;;;;;;;;;;4.80;99.90;;;;;;5120427;27;19924;-83
2022/01/25 17:49:59;;;;;;;;;;;4.70;99.90;;;;;;5093660;28;19925;-83
2022/01/25 17:52:26;;;;;;;;;;;4.80;99.90;;;;;;4980314;28;19927;-84
2022/01/25 17:54:54;;;;;;;;;;;4.70;99.90;;;;;;4744672;29;19932;-82
2022/01/25 17:57:20;;;;;;;;;;;4.70;99.90;;;;;;4505860;31;19937;-85
2022/01/25 18:04:54;;;;;;;;;;;4.70;99.90;;;;;;5173998;27;19926;-86
2022/01/25 18:07:21;;;;;;;;;;;4.80;99.90;;;;;;5114678;27;19931;-83
2022/01/25 18:09:49;;;;;;;;;;;4.80;99.90;;;;;;5114751;27;19924;-83
2022/01/25 18:12:16;;;;;;;;;;;4.80;99.90;;;;;;5072912;28;19924;-82
2022/01/25 18:14:45;;;;;;;;;;;4.80;99.90;;;;;;5009731;28;19927;-90
2022/01/25 18:17:17;;;;;;;;;;;4.80;99.90;;;;;;4809429;29;19931;-90
2022/01/25 18:19:47;;;;;;;;;;;4.80;99.90;;;;;;4552681;30;19940;-88
2022/01/25 18:27:19;;;;;;;;;;;4.80;99.90;;;;;;5195154;27;19971;-82
2022/01/25 18:29:45;;;;;;;;;;;4.90;99.90;;;;;;5142805;27;19923;-84
2022/01/25 18:32:13;;;;;;;;;;;4.90;99.90;;;;;;5125178;27;19931;-84
2022/01/25 18:34:39;;;;;;;;;;;4.80;99.90;;;;;;5085709;28;19925;-83
2022/01/25 18:37:06;;;;;;;;;;;4.80;99.90;;;;;;4970777;28;19951;-86
2022/01/25 18:39:32;;;;;;;;;;;4.80;99.90;;;;;;4839513;29;19929;-83
2022/01/25 18:41:59;;;;;;;;;;;4.80;99.90;;;;;;4650808;29;19934;-82
2022/01/25 18:49:31;;;;;;;;;;;4.80;99.90;;;;;;5175373;27;19925;-86
2022/01/25 18:51:58;;;;;;;;;;;4.90;99.90;;;;;;5108388;28;19931;-82
2022/01/25 18:54:24;;;;;;;;;;;4.80;99.90;;;;;;5106170;28;19932;-84
2022/01/25 18:56:51;;;;;;;;;;;4.80;99.90;;;;;;5032448;28;19926;-85
2022/01/25 18:59:18;;;;;;;;;;;4.80;99.90;;;;;;4937742;28;19934;-84
2022/01/25 19:01:44;;;;;;;;;;;4.80;99.90;;;;;;4724076;30;19932;-87
2022/01/25 19:04:11;;;;;;;;;;;4.80;99.90;;;;;;4483431;30;19944;-83
2022/01/25 19:11:46;;;;;;;;;;;4.70;99.90;;;;;;5164858;27;19926;-85
2022/01/25 19:14:15;;;;;;;;;;;4.70;99.90;;;;;;5092991;28;19931;-83
2022/01/25 19:16:42;;;;;;;;;;;4.70;99.90;;;;;;5068819;28;19924;-84
2022/01/25 19:19:10;;;;;;;;;;;4.70;99.90;;;;;;5039377;28;19925;-82
2022/01/25 19:21:37;;;;;;;;;;;4.70;99.90;;;;;;4959613;28;19947;-79
2022/01/25 19:24:04;;;;;;;;;;;4.70;99.90;;;;;;4796605;29;19938;-81
2022/01/25 19:26:31;;;;;;;;;;;4.60;99.90;;;;;;4520266;30;19937;-83
2022/01/25 19:33:27;;;;;;;;;;;4.70;99.90;;;;;;5174304;27;19926;-82
2022/01/25 19:35:54;;;;;;;;;;;4.80;99.90;;;;;;5135803;27;19923;-83
2022/01/25 19:38:20;;;;;;;;;;;4.80;99.90;;;;;;5111562;28;19947;-81